Time;durP1;ratioP1;P1;durP2;ratioP2;P2;SDS_P1;SDS_P2;PMS_P1;PMS_P2;Temp;Humidity;BMP_temperature;BMP_pressure;BME280_temperature;BME280_humidity;BME280_pressure;Samples;Min_cycle;Max_cycle;Signal;HPM_P1;HPM_P2
2022/10/13 00:01:42;;;;;;;23.93;13.10;;;;;;;14.05;84.70;101135.13;5032372;28;20221;-65
2022/10/13 00:04:09;;;;;;;27.57;14.27;;;;;;;13.93;84.86;101129.19;5031995;28;20700;-66
2022/10/13 00:06:37;;;;;;;24.40;13.53;;;;;;;13.88;85.42;101124.31;5032605;28;20208;-66
2022/10/13 00:09:05;;;;;;;18.90;12.37;;;;;;;13.91;85.46;101121.34;5028179;28;20901;-66
2022/10/13 00:11:33;;;;;;;23.80;13.80;;;;;;;14.00;85.13;101124.06;5025661;28;20282;-65
2022/10/13 00:14:03;;;;;;;28.60;13.37;;;;;;;13.95;85.33;101121.88;5031570;28;20570;-66
2022/10/13 00:16:32;;;;;;;25.47;12.77;;;;;;;13.97;85.05;101130.56;5028905;28;20333;-65
2022/10/13 00:19:01;;;;;;;23.33;12.67;;;;;;;14.01;84.90;101131.06;5028948;28;20302;-67
2022/10/13 00:21:29;;;;;;;23.70;13.07;;;;;;;14.07;84.47;101122.47;5025580;28;20241;-65
2022/10/13 00:23:57;;;;;;;22.37;14.33;;;;;;;14.04;83.94;101120.09;5029868;28;20211;-65
2022/10/13 00:26:26;;;;;;;27.87;13.23;;;;;;;13.99;84.08;101127.72;5032235;28;20782;-66
2022/10/13 00:28:54;;;;;;;22.93;13.50;;;;;;;13.91;84.12;101132.00;5028428;28;20211;-66
2022/10/13 00:31:23;;;;;;;24.23;13.53;;;;;;;13.86;84.12;101131.63;5024555;28;20206;-65
2022/10/13 00:33:51;;;;;;;25.67;12.77;;;;;;;13.88;84.23;101137.66;5031306;28;20212;-65
2022/10/13 00:36:21;;;;;;;24.43;12.60;;;;;;;13.85;84.18;101137.94;5028454;28;20229;-66
2022/10/13 00:38:49;;;;;;;24.73;13.43;;;;;;;13.84;84.21;101140.75;5034540;28;20268;-65
2022/10/13 00:41:17;;;;;;;25.90;13.50;;;;;;;13.84;83.66;101146.94;5035788;28;20961;-66
2022/10/13 00:43:56;;;;;;;21.13;12.37;;;;;;;13.82;83.77;101142.75;5036293;28;20738;-65
2022/10/13 00:46:25;;;;;;;23.47;13.13;;;;;;;13.77;84.07;101139.72;5033158;28;20699;-66
2022/10/13 00:48:55;;;;;;;22.87;13.80;;;;;;;13.76;83.93;101138.88;5033820;28;20598;-66
2022/10/13 00:51:28;;;;;;;25.47;12.37;;;;;;;13.70;84.36;101138.66;5032571;28;20262;-65
2022/10/13 00:53:58;;;;;;;24.00;13.30;;;;;;;13.65;84.35;101141.75;5039504;28;20211;-64
2022/10/13 00:56:27;;;;;;;24.07;13.53;;;;;;;13.65;84.32;101136.41;5034303;28;20255;-66
2022/10/13 00:58:56;;;;;;;26.37;14.70;;;;;;;13.61;84.22;101129.72;5029700;28;20812;-65
2022/10/13 01:01:24;;;;;;;22.23;13.00;;;;;;;13.59;84.39;101129.03;5031147;28;20213;-66
2022/10/13 01:03:52;;;;;;;24.70;13.90;;;;;;;13.59;84.12;101114.88;5029977;28;20247;-65
2022/10/13 01:06:20;;;;;;;23.23;13.00;;;;;;;13.65;83.66;101124.91;5030578;28;20259;-65
2022/10/13 01:08:53;;;;;;;27.93;13.70;;;;;;;13.67;82.80;101131.78;5033667;28;20227;-66
2022/10/13 01:11:32;;;;;;;28.33;14.33;;;;;;;13.64;82.90;101126.75;5028982;28;20205;-65
2022/10/13 01:14:11;;;;;;;32.63;13.77;;;;;;;13.56;83.27;101124.84;5032783;28;20214;-65
2022/10/13 01:16:54;;;;;;;23.80;13.73;;;;;;;13.61;83.28;101128.91;5029373;28;20235;-65
2022/10/13 01:19:49;;;;;;;27.63;14.37;;;;;;;13.61;83.31;101118.22;5029912;28;20297;-65
2022/10/13 01:22:30;;;;;;;25.73;14.03;;;;;;;13.63;82.92;101126.94;5026363;28;20240;-65
2022/10/13 01:25:09;;;;;;;23.43;13.73;;;;;;;13.59;82.91;101131.72;5027923;28;20823;-66
2022/10/13 01:27:49;;;;;;;25.07;13.33;;;;;;;13.58;83.72;101124.69;5032804;28;20721;-66
2022/10/13 01:30:20;;;;;;;24.07;13.40;;;;;;;13.64;83.15;101123.25;5030214;28;20193;-66
2022/10/13 01:33:14;;;;;;;24.43;13.67;;;;;;;13.64;83.14;101126.75;5029375;28;20209;-66
2022/10/13 01:35:55;;;;;;;26.23;14.60;;;;;;;13.55;84.08;101123.16;5028202;28;20210;-65
2022/10/13 01:38:34;;;;;;;26.50;14.80;;;;;;;13.61;83.82;101120.91;5029178;28;20209;-66
2022/10/13 01:41:07;;;;;;;25.90;14.10;;;;;;;13.65;83.20;101120.44;5026593;28;20643;-64
2022/10/13 01:43:43;;;;;;;26.50;14.50;;;;;;;13.62;83.22;101110.09;5025506;28;20212;-66
2022/10/13 01:46:15;;;;;;;26.13;15.87;;;;;;;13.61;83.24;101115.56;5032503;28;20210;-66
2022/10/13 01:48:44;;;;;;;25.17;15.00;;;;;;;13.61;83.50;101108.41;5033673;28;20709;-66
2022/10/13 01:51:17;;;;;;;31.43;15.07;;;;;;;13.61;83.41;101104.91;5032571;28;20205;-65
2022/10/13 01:53:49;;;;;;;28.53;14.67;;;;;;;13.57;83.47;101107.03;5026353;28;20212;-65
2022/10/13 01:56:17;;;;;;;22.40;14.20;;;;;;;13.57;83.32;101102.53;5026680;28;20226;-65
2022/10/13 01:58:47;;;;;;;27.90;14.27;;;;;;;13.62;82.80;101110.09;5025511;28;20206;-65
2022/10/13 02:01:29;;;;;;;30.47;14.97;;;;;;;13.62;82.67;101101.25;5026507;28;20276;-68
2022/10/13 02:04:09;;;;;;;27.57;13.67;;;;;;;13.60;83.06;101105.91;5031309;28;20216;-66
2022/10/13 02:06:42;;;;;;;25.13;14.57;;;;;;;13.68;82.25;101100.63;5026350;28;20220;-65
2022/10/13 02:09:15;;;;;;;26.37;15.03;;;;;;;13.69;81.48;101102.31;5027173;28;20273;-66
2022/10/13 02:11:49;;;;;;;29.87;15.20;;;;;;;13.61;81.61;101095.09;5020972;28;20233;-66
2022/10/13 02:14:20;;;;;;;26.77;14.90;;;;;;;13.50;82.69;101100.63;5023721;28;20204;-66
2022/10/13 02:16:51;;;;;;;32.17;16.07;;;;;;;13.56;82.61;101100.84;5028781;28;20226;-65
2022/10/13 02:19:19;;;;;;;26.40;14.93;;;;;;;13.63;81.97;101094.94;5025359;28;20226;-66
2022/10/13 02:21:48;;;;;;;22.80;13.43;;;;;;;13.65;81.78;101088.44;5024152;28;20236;-66
2022/10/13 02:24:16;;;;;;;30.07;15.77;;;;;;;13.64;82.05;101093.94;5032913;28;20211;-67
2022/10/13 02:26:44;;;;;;;29.27;14.33;;;;;;;13.65;82.19;101095.59;5024927;28;20208;-65
2022/10/13 02:29:14;;;;;;;27.67;15.37;;;;;;;13.62;82.40;101094.09;5028144;28;20222;-65
2022/10/13 02:31:43;;;;;;;26.60;14.53;;;;;;;13.54;82.97;101096.69;5027460;28;20197;-66
2022/10/13 02:34:13;;;;;;;26.63;14.73;;;;;;;13.36;83.63;101083.38;5031902;28;20212;-65
2022/10/13 02:36:42;;;;;;;30.03;15.20;;;;;;;13.21;84.21;101078.69;5029407;28;20798;-65
2022/10/13 02:39:11;;;;;;;25.50;14.60;;;;;;;13.22;84.78;101091.00;5025910;28;20217;-65
2022/10/13 02:41:39;;;;;;;27.60;14.77;;;;;;;13.30;84.23;101083.09;5022995;28;20247;-65
2022/10/13 02:44:07;;;;;;;32.57;15.10;;;;;;;13.34;84.13;101089.81;5030118;28;20597;-63
2022/10/13 02:46:34;;;;;;;31.90;16.03;;;;;;;13.36;84.34;101093.19;5028625;28;20205;-66
2022/10/13 02:49:02;;;;;;;25.60;15.33;;;;;;;13.38;84.09;101076.03;5026445;28;20627;-66
2022/10/13 02:51:31;;;;;;;25.30;14.80;;;;;;;13.35;83.97;101080.84;5022090;28;20200;-65
2022/10/13 02:54:04;;;;;;;28.50;15.30;;;;;;;13.33;84.21;101072.16;5027756;28;20662;-65
2022/10/13 02:56:31;;;;;;;29.57;14.53;;;;;;;13.29;83.83;101068.94;5029982;28;20240;-65
2022/10/13 02:58:59;;;;;;;25.70;13.73;;;;;;;13.20;84.32;101075.19;5028462;28;20588;-66
2022/10/13 03:01:27;;;;;;;26.97;15.23;;;;;;;13.19;84.67;101076.19;5028120;28;20227;-66
2022/10/13 03:03:54;;;;;;;22.67;14.63;;;;;;;13.18;84.41;101080.69;5026872;28;20209;-66
2022/10/13 03:06:22;;;;;;;23.30;14.60;;;;;;;13.25;83.93;101080.06;5030235;28;20232;-66
2022/10/13 03:08:51;;;;;;;27.47;14.83;;;;;;;13.29;83.21;101086.75;5028869;28;20745;-65
2022/10/13 03:11:19;;;;;;;28.87;15.33;;;;;;;13.24;83.49;101073.91;5032464;28;20199;-65
2022/10/13 03:13:46;;;;;;;28.27;15.53;;;;;;;13.19;84.41;101077.00;5028098;28;20231;-65
2022/10/13 03:16:14;;;;;;;27.23;14.77;;;;;;;13.18;84.33;101075.34;5029427;28;20216;-65
2022/10/13 03:18:42;;;;;;;30.50;15.67;;;;;;;13.24;84.06;101075.72;5027466;28;20711;-67
2022/10/13 03:21:10;;;;;;;31.07;16.40;;;;;;;13.35;83.47;101070.19;5031558;28;20697;-66
2022/10/13 03:23:38;;;;;;;25.20;14.23;;;;;;;13.32;83.56;101071.31;5028561;28;20262;-65
2022/10/13 03:26:07;;;;;;;32.90;15.80;;;;;;;13.33;83.40;101069.50;5029527;28;20213;-65
2022/10/13 03:28:35;;;;;;;28.53;14.93;;;;;;;13.33;83.30;101081.00;5026274;28;21255;-65
2022/10/13 03:31:03;;;;;;;26.43;15.00;;;;;;;13.37;83.02;101074.34;5037404;28;20210;-65
2022/10/13 03:33:31;;;;;;;30.80;15.33;;;;;;;13.35;83.27;101071.03;5025393;28;20677;-66
2022/10/13 03:36:00;;;;;;;25.73;14.90;;;;;;;13.29;83.93;101068.94;5028530;28;20216;-66
2022/10/13 03:38:29;;;;;;;27.40;15.73;;;;;;;13.29;84.11;101073.44;5031891;28;20238;-64
2022/10/13 03:40:56;;;;;;;30.67;15.43;;;;;;;13.37;83.54;101073.56;5029612;28;20629;-66
2022/10/13 03:43:25;;;;;;;28.93;16.47;;;;;;;13.40;82.50;101070.56;5033931;28;20686;-65
2022/10/13 03:45:57;;;;;;;26.50;15.50;;;;;;;13.23;83.46;101071.38;5029922;28;20724;-67
2022/10/13 03:48:24;;;;;;;25.33;15.23;;;;;;;13.13;84.15;101072.28;5031863;28;20213;-64
2022/10/13 03:50:52;;;;;;;27.53;14.67;;;;;;;13.15;84.21;101075.66;5028286;28;20213;-65
2022/10/13 03:53:20;;;;;;;32.53;16.37;;;;;;;13.15;84.34;101075.66;5029625;28;20223;-65
2022/10/13 03:55:49;;;;;;;27.77;15.70;;;;;;;13.18;84.62;101078.03;5028703;28;20216;-65
2022/10/13 03:58:17;;;;;;;30.00;15.67;;;;;;;13.24;84.23;101073.06;5030480;28;20207;-65
2022/10/13 04:00:46;;;;;;;28.47;15.50;;;;;;;13.23;83.96;101076.72;5028281;28;20692;-65
2022/10/13 04:03:14;;;;;;;27.87;14.93;;;;;;;13.27;83.63;101072.78;5028115;28;20271;-65
2022/10/13 04:05:41;;;;;;;24.03;15.13;;;;;;;13.36;83.16;101077.19;5029384;28;20205;-66
2022/10/13 04:08:09;;;;;;;27.07;14.60;;;;;;;13.37;82.85;101068.22;5030820;28;20233;-66
2022/10/13 04:10:37;;;;;;;35.20;16.30;;;;;;;13.22;83.61;101075.03;5026871;28;20211;-66
2022/10/13 04:13:05;;;;;;;27.47;15.70;;;;;;;13.11;84.39;101066.22;5027793;28;20712;-66
2022/10/13 04:15:36;;;;;;;28.47;15.80;;;;;;;13.09;85.03;101070.91;5030215;28;20271;-66
2022/10/13 04:18:07;;;;;;;28.47;15.03;;;;;;;13.10;84.74;101077.06;5035818;28;20233;-67
2022/10/13 04:20:37;;;;;;;30.47;15.63;;;;;;;13.06;84.87;101079.19;5036408;28;20205;-64
2022/10/13 04:23:05;;;;;;;27.40;14.90;;;;;;;13.04;85.23;101085.63;5030075;28;20311;-65
2022/10/13 04:25:35;;;;;;;31.40;16.30;;;;;;;12.93;86.12;101078.66;5032038;28;20208;-65
2022/10/13 04:28:02;;;;;;;27.93;16.00;;;;;;;12.98;86.33;101079.09;5032746;28;20212;-68
2022/10/13 04:30:30;;;;;;;29.60;15.17;;;;;;;13.03;86.07;101076.78;5031955;28;20213;-66
2022/10/13 04:32:58;;;;;;;29.30;16.07;;;;;;;13.09;85.50;101070.06;5034642;28;20212;-66
2022/10/13 04:35:27;;;;;;;31.67;17.13;;;;;;;13.02;86.34;101074.28;5032956;28;20215;-65
2022/10/13 04:37:56;;;;;;;31.90;15.73;;;;;;;12.94;87.43;101071.53;5034447;28;20208;-65
2022/10/13 04:40:23;;;;;;;30.90;15.93;;;;;;;12.89;88.36;101069.31;5031647;28;20213;-66
2022/10/13 04:42:51;;;;;;;27.43;15.00;;;;;;;13.06;87.78;101067.69;5029080;28;20857;-66
2022/10/13 04:45:19;;;;;;;28.77;15.80;;;;;;;13.13;86.94;101068.75;5035225;28;20254;-65
2022/10/13 04:47:46;;;;;;;28.43;15.30;;;;;;;13.10;87.51;101074.41;5044159;28;20250;-65
2022/10/13 04:50:14;;;;;;;32.80;15.40;;;;;;;13.02;88.52;101072.47;5030487;28;20290;-66
2022/10/13 04:52:43;;;;;;;30.13;14.97;;;;;;;12.95;90.02;101079.38;5032660;28;20665;-64
2022/10/13 04:55:11;;;;;;;26.17;15.30;;;;;;;12.94;90.53;101068.88;5028798;28;20204;-65
2022/10/13 04:57:39;;;;;;;36.33;15.63;;;;;;;12.97;90.57;101060.59;5034246;28;20715;-65
2022/10/13 05:00:08;;;;;;;26.67;15.70;;;;;;;12.96;90.89;101057.09;5033618;28;20305;-66
2022/10/13 05:02:36;;;;;;;26.13;14.57;;;;;;;12.97;90.82;101057.94;5031912;28;20228;-66
2022/10/13 05:05:07;;;;;;;28.87;16.10;;;;;;;12.87;91.89;101044.69;5038231;28;20312;-66
2022/10/13 05:07:34;;;;;;;29.03;15.47;;;;;;;12.82;92.73;101044.28;5032258;28;20213;-65
2022/10/13 05:10:04;;;;;;;31.70;15.57;;;;;;;12.88;92.41;101037.53;5037413;28;20212;-65
2022/10/13 05:12:32;;;;;;;30.97;14.97;;;;;;;12.98;91.31;101025.84;5031677;28;20227;-65
2022/10/13 05:14:59;;;;;;;35.10;16.60;;;;;;;13.04;90.65;101029.72;5031640;28;20317;-65
2022/10/13 05:17:30;;;;;;;30.03;16.43;;;;;;;13.07;90.56;101024.09;5034485;28;20623;-65
2022/10/13 05:20:01;;;;;;;30.57;16.00;;;;;;;13.06;90.53;101015.28;5032432;28;20253;-65
2022/10/13 05:22:29;;;;;;;30.50;16.37;;;;;;;13.08;90.57;101020.44;5031145;28;20324;-67
2022/10/13 05:24:57;;;;;;;30.00;16.13;;;;;;;13.14;90.23;101026.03;5034339;28;20217;-63
2022/10/13 05:27:26;;;;;;;27.23;16.10;;;;;;;13.24;89.38;101027.78;5030874;28;20614;-62
2022/10/13 05:29:54;;;;;;;27.17;16.30;;;;;;;13.27;88.74;101024.84;5033462;28;20286;-62
2022/10/13 05:32:21;;;;;;;27.37;15.77;;;;;;;13.22;88.67;101014.63;5033823;28;20200;-62
2022/10/13 05:34:49;;;;;;;29.43;15.27;;;;;;;13.21;89.60;101020.09;5034251;28;20303;-61
2022/10/13 05:37:17;;;;;;;30.43;16.97;;;;;;;13.30;88.64;101020.03;5034787;28;20216;-62
2022/10/13 05:39:45;;;;;;;31.77;15.27;;;;;;;13.36;88.15;101015.94;5033660;28;20216;-60
2022/10/13 05:42:15;;;;;;;33.47;16.70;;;;;;;13.24;88.65;101015.31;5033034;28;20236;-60
2022/10/13 05:44:45;;;;;;;37.83;17.80;;;;;;;13.10;90.13;101014.00;5033395;28;20346;-60
2022/10/13 05:47:12;;;;;;;38.40;17.97;;;;;;;13.03;91.07;101010.25;5028094;28;20211;-61
2022/10/13 05:49:40;;;;;;;38.70;17.07;;;;;;;13.02;91.77;101018.38;5029455;28;20216;-61
2022/10/13 05:52:10;;;;;;;42.13;16.00;;;;;;;13.01;91.90;101030.88;5028435;28;20577;-61
2022/10/13 05:54:41;;;;;;;47.73;18.37;;;;;;;12.93;92.97;101028.09;5030789;28;20209;-62
2022/10/13 05:57:15;;;;;;;42.07;18.67;;;;;;;12.87;93.79;101022.53;5027867;28;20688;-61
2022/10/13 05:59:49;;;;;;;43.90;18.53;;;;;;;12.88;94.23;101017.06;5027515;28;20647;-62
2022/10/13 06:02:19;;;;;;;37.97;18.53;;;;;;;12.92;94.11;101014.97;5027720;28;20658;-61
2022/10/13 06:04:51;;;;;;;41.03;18.77;;;;;;;12.85;94.37;101017.38;5029029;28;20209;-61
2022/10/13 06:07:19;;;;;;;42.63;19.40;;;;;;;12.79;95.34;101009.97;5030337;28;20205;-62
2022/10/13 06:09:48;;;;;;;40.33;20.23;;;;;;;12.75;96.34;101013.94;5030564;28;20278;-61
2022/10/13 06:12:15;;;;;;;38.80;19.60;;;;;;;12.80;96.79;101022.31;5029743;28;20259;-62
2022/10/13 06:14:44;;;;;;;40.43;21.67;;;;;;;12.95;95.97;101020.81;5027248;28;20224;-62
2022/10/13 06:17:12;;;;;;;40.83;21.53;;;;;;;13.10;95.23;101021.16;5029533;28;20200;-62
2022/10/13 06:19:40;;;;;;;41.27;21.80;;;;;;;13.18;94.26;101026.59;5027990;28;20653;-62
2022/10/13 06:22:07;;;;;;;40.50;21.20;;;;;;;13.23;93.91;101029.63;5026917;28;20259;-62
2022/10/13 06:24:35;;;;;;;40.27;20.17;;;;;;;13.26;93.91;101018.66;5026661;28;20205;-60
2022/10/13 06:27:03;;;;;;;38.77;21.53;;;;;;;13.32;93.43;101031.38;5027941;28;20217;-60
2022/10/13 06:29:32;;;;;;;39.77;19.87;;;;;;;13.37;93.02;101025.59;5035580;28;20225;-60
2022/10/13 06:32:01;;;;;;;35.83;18.73;;;;;;;13.41;93.12;101022.47;5036439;28;20605;-61
2022/10/13 06:34:28;;;;;;;37.73;19.00;;;;;;;13.45;92.65;101020.34;5032241;28;20210;-60
2022/10/13 06:36:57;;;;;;;43.90;21.13;;;;;;;13.43;92.54;101017.81;5028443;28;20207;-61
2022/10/13 06:39:25;;;;;;;55.67;19.23;;;;;;;13.32;93.70;101023.38;5028502;28;20260;-62
2022/10/13 06:41:54;;;;;;;36.63;18.53;;;;;;;13.22;94.82;101033.25;5032181;28;20208;-62
2022/10/13 06:44:21;;;;;;;36.03;18.97;;;;;;;13.20;95.94;101040.56;5031422;28;20215;-63
2022/10/13 06:46:49;;;;;;;40.13;19.00;;;;;;;13.22;95.94;101038.59;5031628;28;20628;-62
2022/10/13 06:49:18;;;;;;;33.27;17.50;;;;;;;13.15;96.49;101016.22;5031910;28;20619;-61
2022/10/13 06:51:46;;;;;;;36.77;17.67;;;;;;;13.05;98.23;101024.25;5018285;28;20263;-62
2022/10/13 06:54:14;;;;;;;46.40;18.23;;;;;;;12.98;99.24;101015.19;5032515;28;20216;-61
2022/10/13 06:56:41;;;;;;;28.93;15.47;;;;;;;13.00;99.66;101012.38;5034560;28;20212;-63
2022/10/13 06:59:09;;;;;;;30.57;17.47;;;;;;;13.01;99.93;101019.38;5028800;28;20281;-61
2022/10/13 07:01:38;;;;;;;35.07;16.73;;;;;;;13.11;99.56;101025.47;5027033;28;20216;-62
2022/10/13 07:04:08;;;;;;;24.07;16.27;;;;;;;13.18;98.59;101026.59;5037409;28;20235;-62
2022/10/13 07:06:37;;;;;;;26.33;15.10;;;;;;;13.27;97.99;101036.31;5033837;28;20212;-62
2022/10/13 07:09:06;;;;;;;24.50;14.17;;;;;;;13.31;97.15;101036.84;5039145;28;20223;-62
2022/10/13 07:11:34;;;;;;;22.20;14.60;;;;;;;13.40;95.84;101042.09;5033720;28;20262;-62
2022/10/13 07:14:02;;;;;;;24.63;14.43;;;;;;;13.51;94.80;101035.72;5033999;28;20249;-62
2022/10/13 07:16:30;;;;;;;29.67;16.10;;;;;;;13.54;93.97;101030.09;5032584;28;20813;-62
2022/10/13 07:18:58;;;;;;;24.77;16.20;;;;;;;13.57;93.61;101030.59;5036554;28;20545;-62
2022/10/13 07:21:25;;;;;;;24.10;14.80;;;;;;;13.56;92.96;101025.41;5032248;28;20778;-62
2022/10/13 07:23:55;;;;;;;27.33;15.63;;;;;;;13.54;93.32;101024.75;5031536;28;20240;-61
2022/10/13 07:26:22;;;;;;;24.63;14.63;;;;;;;13.49;93.45;101019.03;5038285;28;20259;-62
2022/10/13 07:28:50;;;;;;;24.70;14.90;;;;;;;13.44;94.26;101016.00;5032935;28;20646;-62
2022/10/13 07:31:20;;;;;;;22.73;14.80;;;;;;;13.40;94.45;101011.97;5036086;28;20208;-62
2022/10/13 07:33:50;;;;;;;23.47;14.67;;;;;;;13.37;94.77;101001.63;5035131;28;20210;-61
2022/10/13 07:36:18;;;;;;;24.03;15.60;;;;;;;13.37;95.30;101002.44;5037034;28;20249;-61
2022/10/13 07:38:46;;;;;;;24.63;14.37;;;;;;;13.40;94.87;101002.13;5032966;28;20204;-62
2022/10/13 07:41:15;;;;;;;21.53;14.63;;;;;;;13.43;95.23;101001.84;5036617;28;20223;-62
2022/10/13 07:43:43;;;;;;;25.87;15.27;;;;;;;13.51;94.68;101004.56;5029854;28;20231;-61
2022/10/13 07:46:13;;;;;;;23.27;14.43;;;;;;;13.51;94.85;101001.91;5033671;28;20258;-61
2022/10/13 07:48:41;;;;;;;23.90;15.17;;;;;;;13.57;94.54;100998.63;5040816;28;20210;-61
2022/10/13 07:51:11;;;;;;;23.53;15.07;;;;;;;13.62;93.90;101006.16;5030620;28;20198;-62
2022/10/13 07:53:40;;;;;;;22.03;14.50;;;;;;;13.57;94.92;101003.09;5036053;28;20289;-62
2022/10/13 07:56:12;;;;;;;28.37;15.93;;;;;;;13.62;95.60;101000.84;5033658;28;20219;-62
2022/10/13 07:58:43;;;;;;;25.77;16.67;;;;;;;13.70;94.84;101008.88;5042983;28;20250;-62
2022/10/13 08:01:10;;;;;;;25.77;16.67;;;;;;;13.70;94.71;101003.56;5038039;28;20665;-61
2022/10/13 08:03:39;;;;;;;29.73;17.53;;;;;;;13.70;94.83;100997.38;5035834;28;20245;-61
2022/10/13 08:06:12;;;;;;;31.23;18.80;;;;;;;13.69;95.03;100999.22;5035318;28;20203;-62
2022/10/13 08:08:40;;;;;;;29.70;19.00;;;;;;;13.70;95.27;100992.06;5034377;28;20234;-63
2022/10/13 08:11:10;;;;;;;32.40;17.93;;;;;;;13.71;95.66;100994.56;5032509;28;20300;-62
2022/10/13 08:13:47;;;;;;;32.23;17.83;;;;;;;13.81;94.66;101003.28;5034184;28;20706;-62
2022/10/13 08:16:14;;;;;;;31.47;18.57;;;;;;;13.92;93.83;101004.84;5033898;28;20207;-62
2022/10/13 08:18:42;;;;;;;29.73;18.77;;;;;;;13.94;94.14;101003.72;5036174;28;20211;-62
2022/10/13 08:21:13;;;;;;;29.53;18.60;;;;;;;14.00;93.87;101012.06;5033135;28;20211;-60
2022/10/13 08:24:01;;;;;;;26.73;16.60;;;;;;;13.94;93.80;101009.06;5027434;28;20313;-61
2022/10/13 08:26:29;;;;;;;31.20;17.90;;;;;;;13.92;94.01;101010.19;5033591;28;20234;-62
2022/10/13 08:28:58;;;;;;;30.67;18.97;;;;;;;13.86;95.17;101019.66;5030727;28;20233;-61
2022/10/13 08:31:45;;;;;;;32.10;18.23;;;;;;;13.85;94.91;101017.16;5031726;28;20353;-62
2022/10/13 08:34:13;;;;;;;31.20;18.23;;;;;;;13.94;94.03;101025.06;5036038;28;20219;-61
2022/10/13 08:36:42;;;;;;;30.03;17.83;;;;;;;14.00;93.33;101018.25;5035586;28;20660;-62
2022/10/13 08:39:10;;;;;;;33.00;19.33;;;;;;;13.97;93.51;101023.91;5038979;28;20649;-62
2022/10/13 08:41:42;;;;;;;28.90;18.83;;;;;;;13.87;94.36;101012.50;5035072;28;20256;-61
2022/10/13 08:44:20;;;;;;;33.50;18.70;;;;;;;13.81;95.27;101021.94;5039390;28;20213;-61
2022/10/13 08:47:15;;;;;;;31.23;18.23;;;;;;;13.88;94.40;101020.34;5035004;28;20208;-62
2022/10/13 08:49:45;;;;;;;28.50;18.17;;;;;;;13.96;93.63;101021.41;5037474;28;20212;-62
2022/10/13 08:52:17;;;;;;;32.43;19.73;;;;;;;14.03;93.43;101019.78;5032628;28;20863;-60
2022/10/13 08:54:46;;;;;;;34.00;19.60;;;;;;;14.08;93.04;101017.44;5038655;28;20256;-60
2022/10/13 08:57:14;;;;;;;34.17;19.80;;;;;;;14.06;93.60;101020.31;5034524;28;20211;-61
2022/10/13 08:59:43;;;;;;;35.00;21.13;;;;;;;14.01;94.00;101032.41;5032638;28;20608;-61
2022/10/13 09:02:13;;;;;;;34.90;18.90;;;;;;;14.00;94.13;101033.41;5034554;28;20224;-61
2022/10/13 09:04:45;;;;;;;39.23;20.70;;;;;;;13.97;94.61;101023.06;5034325;28;20241;-61
2022/10/13 09:07:17;;;;;;;38.20;20.27;;;;;;;13.86;95.31;101018.81;5031575;28;20214;-61
2022/10/13 09:09:50;;;;;;;39.10;21.23;;;;;;;13.77;96.66;101009.94;5029534;28;20895;-61
2022/10/13 09:12:20;;;;;;;33.40;21.10;;;;;;;13.75;97.83;101024.41;5031840;28;20235;-59
2022/10/13 09:15:00;;;;;;;34.77;21.10;;;;;;;13.88;96.37;101024.84;5029776;28;20533;-61
2022/10/13 09:17:28;;;;;;;37.80;22.07;;;;;;;13.98;95.57;101030.09;5029531;28;20211;-60
2022/10/13 09:20:02;;;;;;;34.97;21.20;;;;;;;14.06;94.78;101028.31;5029665;28;20222;-60
2022/10/13 09:22:31;;;;;;;32.23;19.83;;;;;;;14.10;94.16;101028.81;5033760;28;20254;-60
2022/10/13 09:25:19;;;;;;;32.93;20.97;;;;;;;14.13;94.03;101023.16;5030892;28;20831;-60
2022/10/13 09:27:49;;;;;;;35.13;19.63;;;;;;;14.10;95.03;101013.63;5033421;28;20211;-60
2022/10/13 09:30:33;;;;;;;31.73;20.67;;;;;;;14.09;95.30;101021.78;5030202;28;20213;-60
2022/10/13 09:33:22;;;;;;;38.53;19.93;;;;;;;14.08;94.60;101020.13;5033269;28;20266;-61
2022/10/13 09:36:09;;;;;;;37.63;19.67;;;;;;;13.99;95.51;101015.72;5035113;28;20208;-61
2022/10/13 09:38:38;;;;;;;33.20;19.07;;;;;;;13.98;96.40;101027.41;5034058;28;20471;-61
2022/10/13 09:41:17;;;;;;;29.63;18.47;;;;;;;13.96;96.49;101026.72;5032147;28;20228;-61
2022/10/13 09:44:00;;;;;;;35.50;19.37;;;;;;;13.96;96.73;101016.06;5028039;28;20223;-61
2022/10/13 09:46:32;;;;;;;31.83;20.37;;;;;;;14.06;95.49;101017.63;5031691;28;20211;-61
2022/10/13 09:49:03;;;;;;;29.50;18.60;;;;;;;14.07;95.24;101016.63;5025190;28;20220;-61
2022/10/13 09:51:36;;;;;;;32.27;20.23;;;;;;;14.16;94.53;101012.19;5029079;28;20646;-60
2022/10/13 09:54:06;;;;;;;33.23;19.63;;;;;;;14.23;94.47;101008.72;5032775;28;20210;-60
2022/10/13 09:56:39;;;;;;;32.33;18.93;;;;;;;14.29;93.86;101001.91;5034932;28;20666;-61
2022/10/13 09:59:24;;;;;;;27.10;17.47;;;;;;;14.34;93.38;100994.25;5033774;28;20257;-60
2022/10/13 10:01:56;;;;;;;28.67;17.80;;;;;;;14.37;93.16;100982.44;5029055;28;20208;-63
2022/10/13 10:04:33;;;;;;;34.27;19.47;;;;;;;14.36;93.94;100986.94;5033071;28;20757;-60
2022/10/13 10:07:09;;;;;;;33.87;20.47;;;;;;;14.37;93.30;101004.63;5030276;28;20272;-60
2022/10/13 10:09:43;;;;;;;30.37;18.83;;;;;;;14.37;94.23;101015.28;5035653;28;20290;-60
2022/10/13 10:12:16;;;;;;;31.63;19.80;;;;;;;14.38;94.37;101019.63;5035485;28;20238;-61
2022/10/13 10:14:43;;;;;;;32.43;19.63;;;;;;;14.33;95.56;101024.63;5034955;28;20264;-61
2022/10/13 10:17:21;;;;;;;31.57;20.27;;;;;;;14.21;97.15;101020.53;5034302;28;20211;-60
2022/10/13 10:19:59;;;;;;;34.00;19.23;;;;;;;14.19;97.68;101014.53;5036081;28;20292;-60
2022/10/13 10:22:37;;;;;;;33.23;20.30;;;;;;;14.18;97.96;101015.50;5027611;28;20251;-62
2022/10/13 10:25:19;;;;;;;29.57;18.33;;;;;;;14.20;97.60;101022.38;5029077;28;20688;-60
2022/10/13 10:28:05;;;;;;;29.27;18.77;;;;;;;14.24;96.79;101022.91;5030358;28;20269;-60
2022/10/13 10:30:39;;;;;;;30.80;19.67;;;;;;;14.23;96.72;101010.56;5034044;28;20680;-61
2022/10/13 10:33:13;;;;;;;33.00;19.10;;;;;;;14.17;97.72;101008.50;5029613;28;20306;-61
2022/10/13 10:35:46;;;;;;;33.87;20.27;;;;;;;14.18;97.53;101005.69;5031750;28;20268;-61
2022/10/13 10:38:25;;;;;;;39.37;22.20;;;;;;;14.19;97.72;101003.84;5032418;28;20215;-61
2022/10/13 10:41:01;;;;;;;32.30;20.37;;;;;;;14.25;98.60;100995.22;5027448;28;20203;-61
2022/10/13 10:43:46;;;;;;;36.87;20.60;;;;;;;14.26;99.18;100980.88;5032273;28;20291;-61
2022/10/13 10:46:17;;;;;;;42.77;21.10;;;;;;;14.26;99.93;100964.88;5028172;28;20206;-61
2022/10/13 10:48:49;;;;;;;44.47;23.33;;;;;;;14.22;100.00;100958.22;5027889;28;20207;-60
2022/10/13 10:51:18;;;;;;;37.70;21.17;;;;;;;14.29;100.00;100956.56;5030047;28;20226;-60
2022/10/13 10:53:56;;;;;;;40.80;22.40;;;;;;;14.29;100.00;100959.22;5032256;28;20218;-60
2022/10/13 10:56:32;;;;;;;34.47;20.37;;;;;;;14.34;100.00;100956.91;5029545;28;22207;-59
2022/10/13 10:59:26;;;;;;;36.47;22.10;;;;;;;14.44;100.00;100946.97;5029703;28;20297;-60
2022/10/13 11:02:09;;;;;;;36.33;20.70;;;;;;;14.62;100.00;100938.84;5027363;28;20211;-61
2022/10/13 11:04:43;;;;;;;42.23;23.67;;;;;;;14.82;99.73;100929.56;5031074;28;20225;-62
2022/10/13 11:07:13;;;;;;;39.73;22.80;;;;;;;15.09;98.86;100915.06;5026556;28;20204;-61
2022/10/13 11:10:01;;;;;;;37.80;22.73;;;;;;;15.51;96.94;100908.69;5024944;28;20243;-61
2022/10/13 11:13:01;;;;;;;38.23;24.00;;;;;;;16.01;93.82;100908.44;5034009;28;20365;-62
2022/10/13 11:15:32;;;;;;;41.63;23.60;;;;;;;16.51;89.56;100906.22;5018672;28;20249;-61
2022/10/13 11:18:00;;;;;;;39.00;22.10;;;;;;;16.83;86.06;100899.84;5032070;28;20244;-61
2022/10/13 11:20:58;;;;;;;35.40;20.90;;;;;;;16.87;84.69;100895.81;5029543;28;20213;-60
2022/10/13 11:23:34;;;;;;;31.27;20.73;;;;;;;16.83;85.93;100891.81;5031992;28;20208;-59
2022/10/13 11:26:35;;;;;;;35.80;21.73;;;;;;;16.76;87.15;100890.00;5038127;28;20228;-60
2022/10/13 11:29:03;;;;;;;35.73;22.63;;;;;;;16.71;87.18;100890.53;5031137;28;20907;-61